Time;durP1;ratioP1;P1;durP2;ratioP2;P2;SDS_P1;SDS_P2;PMS_P1;PMS_P2;Temp;Humidity;BMP_temperature;BMP_pressure;BME280_temperature;BME280_humidity;BME280_pressure;Samples;Min_cycle;Max_cycle;Signal;HPM_P1;HPM_P2
2022/01/21 00:01:05;;;;;;;13.87;4.47;;;3.70;99.90;;;;;;5036106;28;20170;-68
2022/01/21 00:03:31;;;;;;;16.57;4.23;;;3.70;99.90;;;;;;5035999;28;20162;-69
2022/01/21 00:05:57;;;;;;;12.40;4.10;;;3.70;99.90;;;;;;5035752;28;20222;-69
2022/01/21 00:08:22;;;;;;;14.30;4.40;;;3.60;99.90;;;;;;5035820;28;20261;-69
2022/01/21 00:10:50;;;;;;;14.37;4.67;;;3.60;99.90;;;;;;5034597;28;20227;-69
2022/01/21 00:13:22;;;;;;;12.87;3.80;;;3.60;99.90;;;;;;5035236;28;20202;-69
2022/01/21 00:15:48;;;;;;;15.17;4.30;;;3.60;99.90;;;;;;5035691;28;20170;-68
2022/01/21 00:18:14;;;;;;;13.13;4.43;;;3.50;99.90;;;;;;5035667;28;20184;-69
2022/01/21 00:31:36;;;;;;;13.97;4.07;;;3.70;99.90;;;;;;5035694;28;20586;-69
2022/01/21 00:34:02;;;;;;;19.50;4.10;;;3.70;99.90;;;;;;5035143;28;20249;-69
2022/01/21 00:36:28;;;;;;;19.30;4.17;;;3.60;99.90;;;;;;5035524;28;20228;-69
2022/01/21 00:38:55;;;;;;;15.53;4.03;;;3.50;99.90;;;;;;5035274;28;20542;-69
2022/01/21 00:41:25;;;;;;;17.47;4.63;;;3.60;99.90;;;;;;5034035;28;20545;-69
2022/01/21 00:43:51;;;;;;;17.80;4.73;;;3.60;99.90;;;;;;5035002;28;20174;-69
2022/01/21 00:46:19;;;;;;;16.53;4.30;;;3.60;99.90;;;;;;5034823;28;20209;-68
2022/01/21 00:48:44;;;;;;;13.20;3.70;;;3.60;99.90;;;;;;5033803;28;20197;-68
2022/01/21 00:51:10;;;;;;;13.00;3.70;;;3.70;99.90;;;;;;5035275;28;20634;-68
2022/01/21 00:53:36;;;;;;;12.90;4.43;;;3.70;99.90;;;;;;5034860;28;20170;-69
2022/01/21 00:56:02;;;;;;;13.53;4.13;;;3.60;99.90;;;;;;5033484;28;20177;-69
2022/01/21 00:58:27;;;;;;;12.50;4.20;;;3.60;99.90;;;;;;5034710;28;20173;-69
2022/01/21 01:00:53;;;;;;;13.10;4.10;;;3.60;99.90;;;;;;5034855;28;20588;-68
2022/01/21 01:03:19;;;;;;;18.50;5.43;;;3.60;99.90;;;;;;5034688;28;20216;-69
2022/01/21 01:05:52;;;;;;;16.47;4.70;;;3.60;99.90;;;;;;5033359;28;20174;-69
2022/01/21 01:08:18;;;;;;;17.10;4.63;;;3.60;99.90;;;;;;5034631;28;20182;-69
2022/01/21 01:11:00;;;;;;;16.47;4.90;;;3.70;99.90;;;;;;5034616;28;20194;-69
2022/01/21 01:21:46;;;;;;;23.63;5.37;;;3.60;99.90;;;;;;5034211;28;20181;-67
2022/01/21 01:29:24;;;;;;;17.70;4.90;;;3.60;99.90;;;;;;5034803;28;20636;-68
2022/01/21 01:31:51;;;;;;;16.83;4.43;;;3.60;99.90;;;;;;5034349;28;20257;-68
2022/01/21 01:34:18;;;;;;;15.07;5.20;;;3.50;99.90;;;;;;5034199;28;20224;-68
2022/01/21 01:36:45;;;;;;;19.97;4.80;;;3.50;99.90;;;;;;5033848;28;20213;-68
2022/01/21 01:39:57;;;;;;;18.33;4.93;;;3.50;99.90;;;;;;5034288;28;20177;-68
2022/01/21 01:50:01;;;;;;;19.00;4.90;;;3.40;99.90;;;;;;5034237;28;20177;-68
2022/01/21 01:52:26;;;;;;;13.57;4.77;;;3.30;99.90;;;;;;5033883;28;20181;-68
2022/01/21 01:54:55;;;;;;;14.53;5.27;;;3.40;99.90;;;;;;5033369;28;20181;-67
2022/01/21 01:57:21;;;;;;;11.63;4.67;;;3.50;99.90;;;;;;5033765;28;20165;-67
2022/01/21 01:59:47;;;;;;;15.27;4.40;;;3.50;99.90;;;;;;5033970;28;20170;-67
2022/01/21 02:02:15;;;;;;;14.13;4.97;;;3.60;99.90;;;;;;5033931;28;20178;-69
2022/01/21 02:04:43;;;;;;;14.23;4.33;;;3.70;99.90;;;;;;5033698;28;20629;-68
2022/01/21 02:07:09;;;;;;;11.03;3.73;;;3.80;99.90;;;;;;5033364;28;20696;-68
2022/01/21 02:09:35;;;;;;;11.17;4.10;;;3.90;99.90;;;;;;5033347;28;20166;-69
2022/01/21 02:12:02;;;;;;;14.80;4.60;;;4.00;99.90;;;;;;5033443;28;20224;-68
2022/01/21 02:14:35;;;;;;;10.43;4.30;;;4.10;99.90;;;;;;5033693;28;20261;-68
2022/01/21 02:22:18;;;;;;;10.80;4.70;;;4.30;99.90;;;;;;5033220;28;20232;-68
2022/01/21 02:24:59;;;;;;;14.30;5.03;;;4.30;99.90;;;;;;5031874;28;20574;-68
2022/01/21 02:27:26;;;;;;;12.50;4.00;;;4.40;99.90;;;;;;5032981;28;20312;-68
2022/01/21 02:29:55;;;;;;;19.30;4.60;;;4.40;99.90;;;;;;5033385;28;20212;-68
2022/01/21 02:32:21;;;;;;;13.77;4.57;;;4.40;99.90;;;;;;5033382;28;20185;-69
2022/01/21 02:34:48;;;;;;;16.87;4.20;;;4.50;99.90;;;;;;5032575;28;20185;-68
2022/01/21 02:37:20;;;;;;;17.67;4.77;;;4.50;99.90;;;;;;5033109;28;20182;-68
2022/01/21 02:39:46;;;;;;;13.57;4.90;;;4.50;99.90;;;;;;5033046;28;20205;-68
2022/01/21 02:42:12;;;;;;;15.13;4.63;;;4.40;99.90;;;;;;5033230;28;20212;-69
2022/01/21 02:44:39;;;;;;;16.40;4.00;;;4.40;99.90;;;;;;5033271;28;20218;-68
2022/01/21 02:47:06;;;;;;;10.53;3.83;;;4.40;99.90;;;;;;5032999;28;20220;-68
2022/01/21 02:49:32;;;;;;;12.80;3.90;;;4.40;99.90;;;;;;5033073;28;20170;-67
2022/01/21 02:52:02;;;;;;;15.63;4.00;;;4.40;99.90;;;;;;5031754;28;20188;-68
2022/01/21 02:54:33;;;;;;;14.17;4.37;;;4.40;99.90;;;;;;5032900;28;20174;-68
2022/01/21 02:57:00;;;;;;;11.53;3.87;;;4.40;99.90;;;;;;5033105;28;20231;-68
2022/01/21 02:59:26;;;;;;;14.63;3.40;;;4.50;99.90;;;;;;5033022;28;20177;-68
2022/01/21 03:01:53;;;;;;;16.27;3.67;;;4.50;99.90;;;;;;5032845;28;20195;-69
2022/01/21 03:04:29;;;;;;;13.50;3.40;;;4.60;99.90;;;;;;5033004;28;20600;-68
2022/01/21 03:06:55;;;;;;;9.83;3.07;;;4.70;99.90;;;;;;5032468;28;20213;-68
2022/01/21 03:09:20;;;;;;;13.07;3.23;;;4.70;99.90;;;;;;5033084;28;20228;-68
2022/01/21 03:11:46;;;;;;;13.97;3.17;;;4.80;99.90;;;;;;5031495;28;20626;-68
2022/01/21 03:14:12;;;;;;;9.33;3.00;;;4.80;99.90;;;;;;5032850;28;20198;-68
2022/01/21 03:16:37;;;;;;;8.17;2.53;;;4.80;99.90;;;;;;5032690;28;20170;-68
2022/01/21 03:19:03;;;;;;;13.43;3.57;;;4.80;99.90;;;;;;5032897;28;20648;-68
2022/01/21 03:21:29;;;;;;;11.90;3.30;;;4.80;99.90;;;;;;5032373;28;20174;-68
2022/01/21 03:23:55;;;;;;;8.10;2.63;;;4.90;99.90;;;;;;5032806;28;20257;-68
2022/01/21 03:26:25;;;;;;;10.00;2.47;;;4.80;99.90;;;;;;5032343;28;20233;-68
2022/01/21 03:28:53;;;;;;;12.60;2.80;;;4.70;99.90;;;;;;5032936;28;20312;-69
2022/01/21 03:31:18;;;;;;;11.07;2.77;;;4.70;99.90;;;;;;5032474;28;20178;-69
2022/01/21 03:33:45;;;;;;;11.53;2.60;;;4.70;99.90;;;;;;5032742;28;20652;-68
2022/01/21 03:36:11;;;;;;;10.07;2.67;;;4.80;99.90;;;;;;5032218;28;20170;-68
2022/01/21 03:38:37;;;;;;;10.73;2.80;;;4.80;99.90;;;;;;5032960;28;20166;-69
2022/01/21 03:41:04;;;;;;;10.43;2.87;;;4.80;99.90;;;;;;5032482;28;20263;-68
2022/01/21 03:43:29;;;;;;;12.37;2.70;;;4.80;99.90;;;;;;5032567;28;20178;-68
2022/01/21 03:45:55;;;;;;;9.83;2.43;;;4.80;99.90;;;;;;5034573;28;20685;-69
2022/01/21 03:48:21;;;;;;;16.93;2.87;;;4.90;99.90;;;;;;5036050;28;20181;-67
2022/01/21 03:50:47;;;;;;;10.27;2.60;;;4.80;99.90;;;;;;5035681;28;20181;-68
2022/01/21 03:53:13;;;;;;;11.73;3.27;;;4.70;99.90;;;;;;5036159;28;20536;-69
2022/01/21 03:55:39;;;;;;;11.07;3.20;;;4.60;99.90;;;;;;5035995;28;20201;-70
2022/01/21 03:58:06;;;;;;;12.43;3.10;;;4.60;99.90;;;;;;5035944;28;20212;-69
2022/01/21 04:00:46;;;;;;;14.73;2.90;;;4.50;99.90;;;;;;5036151;28;20778;-68
2022/01/21 04:03:11;;;;;;;10.10;2.90;;;4.40;99.90;;;;;;5035782;28;20176;-68
2022/01/21 04:05:37;;;;;;;9.93;3.00;;;4.40;99.90;;;;;;5035403;28;20603;-67
2022/01/21 04:08:05;;;;;;;12.73;3.33;;;4.40;99.90;;;;;;5035915;28;20178;-67
2022/01/21 04:10:31;;;;;;;11.17;3.00;;;4.40;99.90;;;;;;5036014;28;20170;-68
2022/01/21 04:12:56;;;;;;;11.67;3.73;;;4.40;99.90;;;;;;5035362;28;20637;-68
2022/01/21 04:15:23;;;;;;;10.87;2.90;;;4.30;99.90;;;;;;5035394;28;20170;-69
2022/01/21 04:17:48;;;;;;;14.17;3.70;;;4.40;99.90;;;;;;5035677;28;20186;-68
2022/01/21 04:20:15;;;;;;;10.87;3.37;;;4.30;99.90;;;;;;5035077;28;20185;-68
2022/01/21 04:22:41;;;;;;;25.37;4.40;;;4.30;99.90;;;;;;5035346;28;20208;-67
2022/01/21 04:25:08;;;;;;;16.20;3.90;;;4.30;99.90;;;;;;5035255;28;20170;-68
2022/01/21 04:27:34;;;;;;;14.97;5.00;;;4.30;99.90;;;;;;5035219;28;20330;-68
2022/01/21 04:30:00;;;;;;;14.23;4.80;;;4.20;99.90;;;;;;5035185;28;20177;-68
2022/01/21 04:32:25;;;;;;;16.50;4.40;;;4.20;99.90;;;;;;5035066;28;20656;-67
2022/01/21 04:34:51;;;;;;;19.83;4.93;;;4.20;99.90;;;;;;5034494;28;20170;-68
2022/01/21 04:37:17;;;;;;;13.80;4.67;;;4.20;99.90;;;;;;5035196;28;20213;-68
2022/01/21 04:39:55;;;;;;;13.23;4.80;;;4.20;99.90;;;;;;5035235;28;20257;-68
2022/01/21 04:47:40;;;;;;;14.20;5.97;;;4.20;99.90;;;;;;5034802;28;20427;-69
2022/01/21 04:50:13;;;;;;;13.10;5.30;;;4.20;99.90;;;;;;5033486;28;20254;-68
2022/01/21 04:52:39;;;;;;;17.67;5.80;;;4.20;99.90;;;;;;5034520;28;20533;-68
2022/01/21 04:55:06;;;;;;;16.20;5.77;;;4.30;99.90;;;;;;5034373;28;20170;-68
2022/01/21 04:57:32;;;;;;;15.10;5.30;;;4.40;99.90;;;;;;5034417;28;20180;-69
2022/01/21 04:59:57;;;;;;;15.73;6.90;;;4.40;99.90;;;;;;5034419;28;20540;-69
2022/01/21 05:02:24;;;;;;;14.07;6.33;;;4.40;99.90;;;;;;5034082;28;20186;-69
2022/01/21 05:04:50;;;;;;;17.97;6.23;;;4.50;99.90;;;;;;5034258;28;20174;-68
2022/01/21 05:07:21;;;;;;;16.97;6.03;;;4.40;99.90;;;;;;5034244;28;20321;-68
2022/01/21 05:09:46;;;;;;;14.37;6.60;;;4.40;99.90;;;;;;5034561;28;20178;-68
2022/01/21 05:12:17;;;;;;;13.90;5.53;;;4.40;99.90;;;;;;5034404;28;20184;-68
2022/01/21 05:17:11;;;;;;;15.53;6.40;;;4.10;99.90;;;;;;5034014;28;20216;-68
2022/01/21 05:19:37;;;;;;;17.60;5.83;;;4.10;99.90;;;;;;5034430;28;20306;-68
2022/01/21 05:22:03;;;;;;;13.00;6.23;;;4.10;99.90;;;;;;5033948;28;20269;-68
2022/01/21 05:24:29;;;;;;;16.03;5.93;;;4.10;99.90;;;;;;5033672;28;20170;-68
2022/01/21 05:26:58;;;;;;;15.23;6.57;;;4.10;99.90;;;;;;5033744;28;20379;-68
2022/01/21 05:29:27;;;;;;;18.97;6.23;;;4.10;99.90;;;;;;5034131;28;20163;-68
2022/01/21 05:31:53;;;;;;;14.53;6.07;;;4.20;99.90;;;;;;5033461;28;20170;-68
2022/01/21 05:34:19;;;;;;;12.20;5.90;;;4.30;99.90;;;;;;5033769;28;20174;-68
2022/01/21 05:36:45;;;;;;;14.80;6.00;;;4.40;99.90;;;;;;5033647;28;20182;-68
2022/01/21 05:39:11;;;;;;;15.07;5.83;;;4.50;99.90;;;;;;5033516;28;20170;-68
2022/01/21 05:41:38;;;;;;;12.77;5.57;;;4.50;99.90;;;;;;5033645;28;20170;-68
2022/01/21 05:44:14;;;;;;;16.67;6.27;;;4.50;99.90;;;;;;5033794;28;20213;-68
2022/01/21 05:46:54;;;;;;;13.97;5.67;;;4.50;99.90;;;;;;5033021;28;20251;-69
2022/01/21 05:49:21;;;;;;;14.43;5.37;;;4.60;99.90;;;;;;5033915;28;20245;-68
2022/01/21 05:51:48;;;;;;;16.87;5.60;;;4.50;99.90;;;;;;5032831;28;20181;-68
2022/01/21 05:54:14;;;;;;;13.13;5.70;;;4.60;99.90;;;;;;5033395;28;20232;-68
2022/01/21 05:56:40;;;;;;;10.60;5.43;;;4.60;99.90;;;;;;5032939;28;20239;-68
2022/01/21 05:59:07;;;;;;;14.07;5.93;;;4.60;99.90;;;;;;5033435;28;20249;-68
2022/01/21 06:01:34;;;;;;;11.60;5.50;;;4.50;99.90;;;;;;5032581;28;20323;-68
2022/01/21 06:04:04;;;;;;;10.83;5.03;;;4.50;99.90;;;;;;5033298;28;20182;-69
2022/01/21 06:06:30;;;;;;;9.17;5.30;;;4.60;99.90;;;;;;5033264;28;20240;-68
2022/01/21 06:08:56;;;;;;;14.07;6.30;;;4.60;99.90;;;;;;5032423;28;20202;-68
2022/01/21 06:11:22;;;;;;;17.53;5.37;;;4.50;99.90;;;;;;5032650;28;20177;-69
2022/01/21 06:13:49;;;;;;;13.57;6.00;;;4.50;99.90;;;;;;5032853;28;20478;-69
2022/01/21 06:16:16;;;;;;;13.27;6.03;;;4.50;99.90;;;;;;5031655;28;20178;-70
2022/01/21 06:18:42;;;;;;;10.70;5.43;;;4.30;99.90;;;;;;5032535;28;20178;-69
2022/01/21 06:21:08;;;;;;;17.73;5.83;;;4.30;99.90;;;;;;5032425;28;20174;-69
2022/01/21 06:23:34;;;;;;;12.70;6.10;;;4.20;99.90;;;;;;5032639;28;20642;-69
2022/01/21 06:26:00;;;;;;;12.77;5.40;;;4.10;99.90;;;;;;5030661;28;20236;-69
2022/01/21 06:28:25;;;;;;;14.40;6.27;;;4.00;99.90;;;;;;5031847;28;20605;-68
2022/01/21 06:30:52;;;;;;;12.43;5.47;;;4.00;99.90;;;;;;5032076;28;20170;-68
2022/01/21 06:33:20;;;;;;;11.77;5.93;;;4.00;99.90;;;;;;5032677;28;20194;-69
2022/01/21 06:35:49;;;;;;;12.80;6.17;;;3.90;99.90;;;;;;5032251;28;20713;-70
2022/01/21 06:38:16;;;;;;;12.57;6.20;;;3.90;99.90;;;;;;5032523;28;20182;-69
2022/01/21 06:40:41;;;;;;;12.80;5.73;;;3.80;99.90;;;;;;5031289;28;20178;-70
2022/01/21 06:43:07;;;;;;;12.97;6.00;;;3.80;99.90;;;;;;5032126;28;20174;-69
2022/01/21 06:45:33;;;;;;;13.63;5.97;;;3.80;99.90;;;;;;5031079;28;20281;-69
2022/01/21 06:47:59;;;;;;;11.30;5.83;;;3.70;99.90;;;;;;5032553;28;20701;-69
2022/01/21 06:50:28;;;;;;;15.90;6.63;;;3.70;99.90;;;;;;5031851;28;20587;-69
2022/01/21 06:52:54;;;;;;;11.87;6.07;;;3.60;99.90;;;;;;5032153;28;20256;-69
2022/01/21 06:55:19;;;;;;;15.77;5.80;;;3.60;99.90;;;;;;5031515;28;20695;-69
2022/01/21 06:57:45;;;;;;;17.87;7.13;;;3.50;99.90;;;;;;5031572;28;20181;-69
2022/01/21 07:00:13;;;;;;;12.10;5.77;;;3.50;99.90;;;;;;5031863;28;20170;-70
2022/01/21 07:02:39;;;;;;;17.37;6.93;;;3.60;99.90;;;;;;5030755;28;20265;-68
2022/01/21 07:05:06;;;;;;;14.83;6.60;;;3.50;99.90;;;;;;5031608;28;20170;-69
2022/01/21 07:07:32;;;;;;;15.93;7.27;;;3.50;99.90;;;;;;5031748;28;20209;-69
2022/01/21 07:10:00;;;;;;;12.67;6.57;;;3.50;99.90;;;;;;5031410;28;20166;-69
2022/01/21 07:12:26;;;;;;;21.00;7.33;;;3.50;99.90;;;;;;5032015;28;20195;-68
2022/01/21 07:14:52;;;;;;;12.87;6.53;;;3.50;99.90;;;;;;5031402;28;20252;-70
2022/01/21 07:17:17;;;;;;;14.80;7.07;;;3.50;99.90;;;;;;5031743;28;20646;-68
2022/01/21 07:19:43;;;;;;;14.37;7.03;;;3.60;99.90;;;;;;5032309;28;20241;-68
2022/01/21 07:22:08;;;;;;;14.37;7.07;;;3.60;99.90;;;;;;5035770;28;20617;-68
2022/01/21 07:24:34;;;;;;;14.77;7.37;;;3.60;99.90;;;;;;5035256;28;20216;-68
2022/01/21 07:27:00;;;;;;;24.30;7.40;;;3.60;99.90;;;;;;5035013;28;20233;-69
2022/01/21 07:29:26;;;;;;;16.53;7.10;;;3.60;99.90;;;;;;5035200;28;20200;-69
2022/01/21 07:31:54;;;;;;;18.10;7.27;;;3.70;99.90;;;;;;5035684;28;20189;-68
2022/01/21 07:34:21;;;;;;;16.77;7.07;;;3.70;99.90;;;;;;5035725;28;20166;-68
2022/01/21 07:36:47;;;;;;;16.70;7.43;;;3.70;99.90;;;;;;5034853;28;20170;-69
2022/01/21 07:39:13;;;;;;;13.33;7.03;;;3.80;99.90;;;;;;5035277;28;20184;-69
2022/01/21 07:41:39;;;;;;;17.20;6.90;;;3.80;99.90;;;;;;5035222;28;20162;-69
2022/01/21 07:44:05;;;;;;;17.57;6.37;;;4.00;99.90;;;;;;5034046;28;20231;-68
2022/01/21 07:46:31;;;;;;;19.20;6.80;;;4.10;99.90;;;;;;5035024;28;20206;-69
2022/01/21 07:48:58;;;;;;;17.73;7.90;;;4.10;99.90;;;;;;5035060;28;20174;-69
2022/01/21 07:51:24;;;;;;;14.47;7.33;;;4.30;99.90;;;;;;5035209;28;20166;-69
2022/01/21 07:53:49;;;;;;;13.67;6.80;;;4.30;99.90;;;;;;5034856;28;20173;-69
2022/01/21 07:56:15;;;;;;;21.53;7.00;;;4.40;99.90;;;;;;5035039;28;20659;-69
2022/01/21 07:58:40;;;;;;;14.77;6.60;;;4.30;99.90;;;;;;5034205;28;20663;-69
2022/01/21 08:01:09;;;;;;;11.13;6.73;;;4.30;99.90;;;;;;5034658;28;20170;-69
2022/01/21 08:03:35;;;;;;;19.50;6.50;;;4.30;99.90;;;;;;5034560;28;20178;-69
2022/01/21 08:06:00;;;;;;;13.27;6.33;;;4.40;99.90;;;;;;5034634;28;20166;-69
2022/01/21 08:08:30;;;;;;;17.50;6.70;;;4.50;99.90;;;;;;5034568;28;20255;-69
2022/01/21 08:10:56;;;;;;;15.67;6.50;;;4.60;99.90;;;;;;5035236;28;20189;-69
2022/01/21 08:13:22;;;;;;;15.47;7.17;;;4.70;99.90;;;;;;5034538;28;20620;-68
2022/01/21 08:15:47;;;;;;;13.13;6.30;;;4.90;99.90;;;;;;5034599;28;20240;-68
2022/01/21 08:18:15;;;;;;;16.73;6.40;;;5.10;99.90;;;;;;5034408;28;20265;-69
2022/01/21 08:20:41;;;;;;;15.83;6.60;;;5.10;99.90;;;;;;5034131;28;20182;-69
2022/01/21 08:23:06;;;;;;;13.77;6.43;;;5.30;99.90;;;;;;5034761;28;20280;-69
2022/01/21 08:25:33;;;;;;;15.27;6.07;;;5.90;99.90;;;;;;5034433;28;20316;-69
2022/01/21 08:28:02;;;;;;;15.37;5.63;;;6.30;99.90;;;;;;5034251;28;20227;-70
2022/01/21 08:30:28;;;;;;;11.87;5.70;;;6.70;99.90;;;;;;5034804;28;20215;-69
2022/01/21 08:32:54;;;;;;;11.50;5.30;;;7.30;99.90;;;;;;5033313;28;20182;-69
2022/01/21 08:35:22;;;;;;;12.63;5.13;;;7.70;99.90;;;;;;5034132;28;20174;-69
2022/01/21 08:37:52;;;;;;;16.53;5.57;;;7.80;99.90;;;;;;5034717;28;20215;-72
2022/01/21 08:40:18;;;;;;;15.30;5.57;;;7.90;99.90;;;;;;5034203;28;20197;-69
2022/01/21 08:42:43;;;;;;;16.40;5.33;;;7.90;99.90;;;;;;5034749;28;20170;-71
2022/01/21 08:45:11;;;;;;;11.60;4.57;;;7.80;99.90;;;;;;5034472;28;20193;-70
2022/01/21 08:47:37;;;;;;;11.87;5.17;;;7.40;99.90;;;;;;5033277;28;20215;-70
2022/01/21 08:50:07;;;;;;;15.20;5.50;;;7.20;99.90;;;;;;5034217;28;20162;-70
2022/01/21 08:52:36;;;;;;;17.73;5.30;;;6.90;99.90;;;;;;5033804;28;20585;-70
2022/01/21 08:55:03;;;;;;;15.03;5.63;;;6.90;99.90;;;;;;5033542;28;20172;-70
2022/01/21 08:57:28;;;;;;;9.00;5.40;;;6.70;99.90;;;;;;5034375;28;20193;-70
2022/01/21 08:59:54;;;;;;;12.53;6.53;;;6.80;99.90;;;;;;5034215;28;20201;-70
2022/01/21 09:02:20;;;;;;;16.43;6.20;;;6.80;99.90;;;;;;5034088;28;20170;-70
2022/01/21 09:04:46;;;;;;;16.40;6.07;;;6.90;99.90;;;;;;5034604;28;20170;-70
2022/01/21 09:07:11;;;;;;;14.20;6.30;;;6.90;99.90;;;;;;5033628;28;20660;-70
2022/01/21 09:09:37;;;;;;;13.60;6.10;;;6.80;99.90;;;;;;5033376;28;20220;-68
2022/01/21 09:12:03;;;;;;;18.30;6.00;;;6.90;99.90;;;;;;5033730;28;20178;-69
2022/01/21 09:14:30;;;;;;;13.37;5.47;;;7.40;99.90;;;;;;5033923;28;20197;-69
2022/01/21 09:16:57;;;;;;;15.00;4.80;;;8.30;99.90;;;;;;5033512;28;20177;-71
2022/01/21 09:19:24;;;;;;;15.47;5.73;;;9.30;99.90;;;;;;5034622;28;20531;-70
2022/01/21 09:21:54;;;;;;;10.60;5.47;;;10.20;99.90;;;;;;5032999;28;20170;-70
2022/01/21 09:24:20;;;;;;;12.53;4.90;;;11.20;99.90;;;;;;5033475;28;20185;-70
2022/01/21 09:26:47;;;;;;;11.00;5.30;;;11.50;99.90;;;;;;5033544;28;20770;-70
2022/01/21 09:29:13;;;;;;;11.97;4.67;;;11.80;99.90;;;;;;5033442;28;20630;-70
2022/01/21 09:31:39;;;;;;;12.37;5.23;;;12.30;98.50;;;;;;5033520;28;20170;-70
2022/01/21 09:34:06;;;;;;;9.30;4.57;;;12.90;97.10;;;;;;5033014;28;20185;-71
2022/01/21 09:36:32;;;;;;;9.60;4.07;;;13.30;95.80;;;;;;5033417;28;20625;-70
2022/01/21 09:38:58;;;;;;;9.73;4.40;;;13.80;93.90;;;;;;5032786;28;20177;-71
2022/01/21 09:41:24;;;;;;;10.13;4.30;;;14.40;1.00;;;;;;5033565;28;20264;-71
2022/01/21 09:43:53;;;;;;;12.53;4.57;;;14.70;1.00;;;;;;5033638;28;20261;-71
2022/01/21 09:46:25;;;;;;;9.27;4.03;;;14.80;1.00;;;;;;5032585;28;20217;-71
2022/01/21 09:49:06;;;;;;;7.53;4.50;;;15.10;1.00;;;;;;5033177;28;20185;-71
2022/01/21 09:51:32;;;;;;;7.72;4.22;;;15.40;1.00;;;;;;5031348;28;20614;-70
2022/01/21 09:54:04;;;;;;;8.00;4.57;;;15.30;1.00;;;;;;5032590;28;20172;-71
2022/01/21 09:56:30;;;;;;;8.75;4.38;;;15.20;1.00;;;;;;5032755;28;20312;-71
2022/01/21 09:58:57;;;;;;;7.45;4.25;;;15.00;1.00;;;;;;5032759;28;20629;-71
2022/01/21 10:01:23;;;;;;;10.85;4.53;;;14.60;1.00;;;;;;5033476;28;20169;-70
2022/01/21 10:03:50;;;;;;;9.27;4.70;;;14.20;1.00;;;;;;5033429;28;20196;-70
2022/01/21 10:06:17;;;;;;;10.43;5.00;;;13.70;1.00;;;;;;5032769;28;20201;-70
2022/01/21 10:08:44;;;;;;;15.90;5.40;;;13.30;1.00;;;;;;5032128;28;20186;-70
2022/01/21 10:11:10;;;;;;;14.00;4.60;;;12.90;1.00;;;;;;5032591;28;20193;-71
2022/01/21 10:13:37;;;;;;;13.07;4.53;;;12.70;1.00;;;;;;5032926;28;20189;-70
2022/01/21 10:16:04;;;;;;;14.10;4.63;;;12.90;1.00;;;;;;5031940;28;20182;-70
2022/01/21 10:18:31;;;;;;;9.23;4.13;;;12.50;1.00;;;;;;5032955;28;20228;-70
2022/01/21 10:21:01;;;;;;;12.20;4.20;;;12.20;94.20;;;;;;5032487;28;20637;-70
2022/01/21 10:23:29;;;;;;;10.60;4.30;;;11.70;99.90;;;;;;5032069;28;20178;-71
2022/01/21 10:25:58;;;;;;;12.30;4.30;;;11.70;1.00;;;;;;5032359;28;20181;-70
2022/01/21 10:28:24;;;;;;;7.00;3.43;;;11.90;1.00;;;;;;5032681;28;20226;-70
2022/01/21 10:31:04;;;;;;;11.13;4.17;;;12.40;99.90;;;;;;5032679;28;20172;-71
2022/01/21 10:33:30;;;;;;;12.93;4.07;;;13.70;1.00;;;;;;5032442;28;20280;-71
2022/01/21 10:36:27;;;;;;;13.83;4.50;;;14.20;1.00;;;;;;5032204;28;20261;-72
2022/01/21 10:39:11;;;;;;;13.17;5.53;;;14.20;1.00;;;;;;5032370;28;20166;-70
2022/01/21 10:41:41;;;;;;;13.10;5.33;;;14.30;1.00;;;;;;5031437;28;20169;-70
2022/01/21 10:44:11;;;;;;;10.00;4.97;;;14.10;1.00;;;;;;5031942;28;20686;-70
2022/01/21 10:46:38;;;;;;;15.50;5.00;;;13.30;1.00;;;;;;5030571;28;20217;-70
2022/01/21 10:49:06;;;;;;;16.53;5.23;;;12.40;1.00;;;;;;5031764;28;20276;-69
2022/01/21 10:51:34;;;;;;;12.30;5.23;;;11.80;99.90;;;;;;5031864;28;20193;-69
2022/01/21 10:54:15;;;;;;;16.53;5.70;;;11.40;99.90;;;;;;5030934;28;20177;-70
2022/01/21 10:57:00;;;;;;;12.73;5.37;;;11.20;1.00;;;;;;5038608;28;20626;-69
2022/01/21 10:59:46;;;;;;;12.97;5.30;;;11.00;99.90;;;;;;5039129;28;20177;-69
2022/01/21 11:02:13;;;;;;;16.47;5.37;;;10.70;99.90;;;;;;5038559;28;20169;-70
2022/01/21 11:04:42;;;;;;;12.60;4.90;;;10.70;99.90;;;;;;5038194;28;20173;-70
2022/01/21 11:07:11;;;;;;;17.30;5.30;;;10.50;99.90;;;;;;5038198;28;20296;-69
2022/01/21 11:09:39;;;;;;;11.70;5.00;;;10.30;99.90;;;;;;5038233;28;20174;-70
2022/01/21 11:12:16;;;;;;;12.93;4.87;;;10.00;99.90;;;;;;5038891;28;20182;-71
2022/01/21 11:14:59;;;;;;;16.20;5.17;;;10.10;99.90;;;;;;5038834;28;20169;-70
2022/01/21 11:17:25;;;;;;;18.07;5.00;;;9.90;99.90;;;;;;5038357;28;20583;-69
2022/01/21 11:20:16;;;;;;;15.00;5.20;;;9.70;99.90;;;;;;5038056;28;20181;-69
2022/01/21 11:22:56;;;;;;;15.10;4.90;;;9.70;99.90;;;;;;5038909;28;20173;-70
2022/01/21 11:25:49;;;;;;;13.63;4.70;;;9.70;99.90;;;;;;5038792;28;20170;-70
2022/01/21 11:28:20;;;;;;;10.10;4.70;;;9.80;99.90;;;;;;5038992;28;20279;-70
2022/01/21 11:30:47;;;;;;;13.53;5.10;;;9.70;99.90;;;;;;5038972;28;20182;-70
2022/01/21 11:33:13;;;;;;;15.70;6.03;;;9.20;99.90;;;;;;5038183;28;20178;-69
2022/01/21 11:35:39;;;;;;;17.20;7.87;;;9.30;99.90;;;;;;5037441;28;20629;-69
2022/01/21 11:38:07;;;;;;;32.60;17.93;;;9.10;99.90;;;;;;5038403;28;20185;-69
2022/01/21 11:40:34;;;;;;;147.80;81.07;;;9.00;99.90;;;;;;5038349;28;20170;-69
2022/01/21 11:43:02;;;;;;;38.90;19.60;;;9.00;99.90;;;;;;5038681;28;20185;-69
2022/01/21 11:50:39;;;;;;;22.50;9.17;;;9.20;99.90;;;;;;5038143;28;20174;-70
2022/01/21 11:53:05;;;;;;;19.10;7.53;;;9.30;99.90;;;;;;5038310;28;20173;-69
2022/01/21 11:55:45;;;;;;;18.50;8.03;;;9.30;99.90;;;;;;5038773;28;20162;-70
2022/01/21 11:58:16;;;;;;;16.77;5.23;;;9.30;99.90;;;;;;5037615;28;20256;-70
2022/01/21 12:00:43;;;;;;;29.93;14.80;;;9.20;99.90;;;;;;5038700;28;20174;-69
2022/01/21 12:03:09;;;;;;;31.73;17.30;;;9.30;99.90;;;;;;5037568;28;20193;-70
2022/01/21 12:05:35;;;;;;;15.60;5.40;;;9.20;99.90;;;;;;5037440;28;20630;-69
2022/01/21 12:08:05;;;;;;;16.40;6.47;;;9.40;99.90;;;;;;5035000;28;20201;-69
2022/01/21 12:10:45;;;;;;;15.47;5.40;;;9.50;99.90;;;;;;5035540;28;20185;-70
2022/01/21 12:13:30;;;;;;;17.60;7.20;;;9.70;99.90;;;;;;5034529;28;20676;-70
2022/01/21 12:21:25;;;;;;;10.27;5.30;;;10.00;99.90;;;;;;5032426;28;20174;-69
2022/01/21 12:23:52;;;;;;;16.43;8.27;;;9.90;99.90;;;;;;5032586;28;20205;-69
2022/01/21 12:26:23;;;;;;;16.07;5.87;;;9.50;99.90;;;;;;5032161;28;20299;-70
2022/01/21 12:28:52;;;;;;;11.83;5.80;;;9.20;99.90;;;;;;5032416;28;20178;-70
2022/01/21 12:31:20;;;;;;;14.67;6.03;;;8.90;99.90;;;;;;5031613;28;20227;-70
2022/01/21 12:34:02;;;;;;;8.77;5.70;;;8.90;99.90;;;;;;5014995;28;20186;-70
2022/01/21 12:36:32;;;;;;;11.20;5.97;;;8.80;99.90;;;;;;5032110;28;20222;-69
2022/01/21 12:41:24;;;;;;;10.13;6.30;;;8.80;99.90;;;;;;5032570;28;20232;-69
2022/01/21 12:43:53;;;;;;;17.03;6.70;;;8.80;99.90;;;;;;5032041;28;20270;-70
2022/01/21 12:46:42;;;;;;;15.90;6.63;;;8.60;99.90;;;;;;5032040;28;20245;-69
2022/01/21 12:49:33;;;;;;;9.40;6.07;;;8.60;99.90;;;;;;5032144;28;20177;-68
2022/01/21 12:57:27;;;;;;;12.70;7.00;;;9.30;99.90;;;;;;5026493;28;20267;-69
2022/01/21 12:59:58;;;;;;;15.70;7.53;;;9.30;99.90;;;;;;5014454;28;20206;-70
2022/01/21 13:02:27;;;;;;;17.60;7.37;;;9.50;99.90;;;;;;5013592;28;20181;-70
2022/01/21 13:05:01;;;;;;;9.93;6.80;;;9.20;99.90;;;;;;5014128;28;20627;-70
2022/01/21 13:07:40;;;;;;;13.63;6.53;;;9.20;99.90;;;;;;5013829;28;20216;-69
2022/01/21 13:10:12;;;;;;;15.30;6.80;;;9.40;99.90;;;;;;5013140;28;20174;-70
2022/01/21 13:15:38;;;;;;;12.27;5.70;;;9.30;99.90;;;;;;5014292;28;20175;-69
2022/01/21 13:18:28;;;;;;;11.40;5.63;;;9.30;99.90;;;;;;5013714;28;20570;-70
2022/01/21 13:21:00;;;;;;;17.70;8.90;;;9.30;99.90;;;;;;5014112;28;20174;-69
2022/01/21 13:23:51;;;;;;;10.83;6.27;;;9.60;99.90;;;;;;5011720;28;20182;-69
2022/01/21 13:26:23;;;;;;;11.37;6.00;;;9.50;99.90;;;;;;5018780;28;20691;-70
2022/01/21 13:29:02;;;;;;;21.03;7.00;;;9.40;99.90;;;;;;5033452;28;20170;-70
2022/01/21 13:31:30;;;;;;;12.40;6.17;;;9.20;99.90;;;;;;5032490;28;20173;-70
2022/01/21 13:34:13;;;;;;;14.97;6.00;;;9.00;99.90;;;;;;5033493;28;20169;-70
2022/01/21 13:37:05;;;;;;;14.20;6.10;;;9.10;99.90;;;;;;5033187;28;20263;-71
2022/01/21 13:39:35;;;;;;;12.23;6.77;;;8.70;99.90;;;;;;5032822;28;20652;-71
2022/01/21 13:42:10;;;;;;;20.47;7.63;;;8.50;99.90;;;;;;5033338;28;20185;-71
2022/01/21 13:44:44;;;;;;;16.03;6.73;;;8.40;99.90;;;;;;5033123;28;20212;-70
2022/01/21 13:47:44;;;;;;;15.93;7.00;;;8.40;99.90;;;;;;5032669;28;20308;-69
2022/01/21 13:50:17;;;;;;;18.93;6.90;;;8.40;99.90;;;;;;5031592;28;20243;-70
2022/01/21 13:52:51;;;;;;;17.10;7.87;;;8.40;99.90;;;;;;5032869;28;20166;-70
2022/01/21 13:55:32;;;;;;;18.70;8.03;;;8.40;99.90;;;;;;5032897;28;20174;-70
2022/01/21 13:58:01;;;;;;;16.13;7.40;;;8.30;99.90;;;;;;5032329;28;20173;-71
2022/01/21 14:00:29;;;;;;;14.90;7.90;;;8.30;99.90;;;;;;5030868;28;20174;-70